createdAt,value
2024-01-26T00:01:44.653Z,9.24
2024-01-26T00:04:12.047Z,9.24
2024-01-26T00:06:39.533Z,9.25
2024-01-26T00:09:17.248Z,9.24
2024-01-26T00:11:44.802Z,9.24
2024-01-26T00:14:11.931Z,9.25
2024-01-26T00:16:40.088Z,9.25
2024-01-26T00:19:07.699Z,9.24
2024-01-26T00:21:35.324Z,9.24
2024-01-26T00:24:02.696Z,9.24
2024-01-26T00:26:29.814Z,9.25
2024-01-26T00:28:57.462Z,9.22
2024-01-26T00:31:24.689Z,9.24
2024-01-26T00:33:51.965Z,9.24
2024-01-26T00:36:19.427Z,9.23
2024-01-26T00:38:46.657Z,9.25
2024-01-26T00:41:13.787Z,9.24
2024-01-26T00:43:40.915Z,9.24
2024-01-26T00:46:09.031Z,9.25
2024-01-26T00:48:38.032Z,9.25
2024-01-26T00:51:08.089Z,9.25
2024-01-26T00:53:35.192Z,9.26
2024-01-26T00:56:02.359Z,9.26
2024-01-26T00:58:30.427Z,9.25
2024-01-26T01:00:57.838Z,9.26
2024-01-26T01:03:25.546Z,9.27
2024-01-26T01:05:53.070Z,9.25
2024-01-26T01:08:20.340Z,9.27
2024-01-26T01:10:47.381Z,9.27
2024-01-26T01:13:16.279Z,9.29
2024-01-26T01:15:43.439Z,9.30
2024-01-26T01:18:10.778Z,9.31
2024-01-26T01:20:38.142Z,9.32
2024-01-26T01:23:06.154Z,9.31
2024-01-26T01:25:33.295Z,9.31
2024-01-26T01:28:00.405Z,9.31
2024-01-26T01:30:27.514Z,9.33
2024-01-26T01:32:54.666Z,9.33
2024-01-26T01:35:21.825Z,9.34
2024-01-26T01:37:48.939Z,9.35
2024-01-26T01:40:16.176Z,9.34
2024-01-26T01:42:43.643Z,9.34
2024-01-26T01:45:15.761Z,9.36
2024-01-26T01:47:44.416Z,9.34
2024-01-26T01:50:12.825Z,9.35
2024-01-26T01:52:43.420Z,9.34
2024-01-26T01:55:12.493Z,9.33
2024-01-26T01:57:41.699Z,9.34
2024-01-26T02:00:28.111Z,9.32
2024-01-26T02:02:55.340Z,9.30
2024-01-26T02:05:22.566Z,9.29
2024-01-26T02:07:51.342Z,9.29
2024-01-26T02:10:19.577Z,9.29
2024-01-26T02:12:46.813Z,9.30
2024-01-26T02:15:15.319Z,9.32
2024-01-26T02:17:46.404Z,9.30
2024-01-26T02:20:13.648Z,9.30
2024-01-26T02:22:40.793Z,9.29
2024-01-26T02:25:08.993Z,9.29
2024-01-26T02:27:36.897Z,9.32
2024-01-26T02:30:04.872Z,9.32
2024-01-26T02:32:32.375Z,9.35
2024-01-26T02:34:59.678Z,9.36
2024-01-26T02:37:26.819Z,9.39
2024-01-26T02:39:53.979Z,9.38
2024-01-26T02:42:21.150Z,9.40
2024-01-26T02:44:48.561Z,9.41
2024-01-26T02:47:16.362Z,9.41
2024-01-26T02:49:44.497Z,9.43
2024-01-26T02:52:11.796Z,9.43
2024-01-26T02:54:39.050Z,9.43
2024-01-26T02:57:06.428Z,9.44
2024-01-26T02:59:33.581Z,9.45
2024-01-26T03:02:00.788Z,9.46
2024-01-26T03:04:28.089Z,9.46
2024-01-26T03:06:57.872Z,9.46
2024-01-26T03:09:25.166Z,9.44
2024-01-26T03:11:52.476Z,9.44
2024-01-26T03:14:20.345Z,9.46
2024-01-26T03:16:48.175Z,9.46
2024-01-26T03:19:15.693Z,9.47
2024-01-26T03:21:46.083Z,9.50
2024-01-26T03:24:14.472Z,9.51
2024-01-26T03:26:41.956Z,9.54
2024-01-26T03:29:09.267Z,9.56
2024-01-26T03:31:36.391Z,9.57
2024-01-26T03:34:03.765Z,9.59
2024-01-26T03:36:31.064Z,9.61
2024-01-26T03:38:58.407Z,9.62
2024-01-26T03:41:25.693Z,9.62
2024-01-26T03:43:54.009Z,9.64
2024-01-26T03:46:22.099Z,9.65
2024-01-26T03:48:50.205Z,9.67
2024-01-26T03:51:17.880Z,9.68
2024-01-26T03:53:45.196Z,9.69
2024-01-26T03:56:12.373Z,9.70
2024-01-26T03:58:39.654Z,9.73
2024-01-26T04:01:07.420Z,9.73
2024-01-26T04:03:34.961Z,9.75
2024-01-26T04:06:05.354Z,9.75
2024-01-26T04:08:32.661Z,9.76
2024-01-26T04:10:59.967Z,9.78
2024-01-26T04:13:27.245Z,9.78
2024-01-26T04:15:54.470Z,9.79
2024-01-26T04:18:22.004Z,9.79
2024-01-26T04:20:50.238Z,9.82
2024-01-26T04:23:17.670Z,9.82
2024-01-26T04:25:45.362Z,9.84
2024-01-26T04:28:12.622Z,9.85
2024-01-26T04:30:41.600Z,9.85
2024-01-26T04:33:09.051Z,9.87
2024-01-26T04:35:36.611Z,9.89
2024-01-26T04:38:04.029Z,9.90
2024-01-26T04:40:31.242Z,9.91
2024-01-26T04:42:58.962Z,9.92
2024-01-26T04:45:26.162Z,9.94
2024-01-26T04:47:53.702Z,9.96
2024-01-26T04:50:20.932Z,9.97
2024-01-26T04:52:50.757Z,9.97
2024-01-26T04:55:18.028Z,9.96
2024-01-26T04:57:45.162Z,9.98
2024-01-26T05:00:13.170Z,9.97
2024-01-26T05:02:40.411Z,10.00
2024-01-26T05:05:07.721Z,10.03
2024-01-26T05:07:34.844Z,10.02
2024-01-26T05:10:02.359Z,10.03
2024-01-26T05:12:29.506Z,10.04
2024-01-26T05:14:56.778Z,10.05
2024-01-26T05:17:23.916Z,10.04
2024-01-26T05:19:51.454Z,10.05
2024-01-26T05:22:20.233Z,10.04
2024-01-26T05:24:47.591Z,10.07
2024-01-26T05:27:14.838Z,10.07
2024-01-26T05:29:42.783Z,10.07
2024-01-26T05:32:11.335Z,10.07
2024-01-26T05:34:38.803Z,10.08
2024-01-26T05:37:06.320Z,10.09
2024-01-26T05:39:36.219Z,10.09
2024-01-26T05:42:03.785Z,10.08
2024-01-26T05:44:31.122Z,10.09
2024-01-26T05:46:58.402Z,10.08
2024-01-26T05:49:27.481Z,10.07
2024-01-26T05:51:54.784Z,10.04
2024-01-26T05:54:21.948Z,10.03
2024-01-26T05:56:49.145Z,10.01
2024-01-26T05:59:16.361Z,10.01
2024-01-26T06:01:43.448Z,10.00
2024-01-26T06:04:10.739Z,9.99
2024-01-26T06:06:37.945Z,9.98
2024-01-26T06:09:05.520Z,9.99
2024-01-26T06:11:34.094Z,9.97
2024-01-26T06:14:01.701Z,9.98
2024-01-26T06:16:28.796Z,9.99
2024-01-26T06:18:56.068Z,9.96
2024-01-26T06:21:23.670Z,9.95
2024-01-26T06:23:50.995Z,9.93
2024-01-26T06:26:18.157Z,9.94
2024-01-26T06:28:45.228Z,9.94
2024-01-26T06:31:12.356Z,9.92
2024-01-26T06:33:40.161Z,9.93
2024-01-26T06:36:07.572Z,9.93
2024-01-26T06:38:34.785Z,9.93
2024-01-26T06:41:02.045Z,9.92
2024-01-26T06:43:30.327Z,9.92
2024-01-26T06:45:57.624Z,9.92
2024-01-26T06:48:26.798Z,9.93
2024-01-26T06:50:54.481Z,9.93
2024-01-26T06:53:22.626Z,9.92
2024-01-26T06:55:53.630Z,9.92
2024-01-26T06:58:21.212Z,9.92
2024-01-26T07:00:48.569Z,9.95
2024-01-26T07:03:15.802Z,9.97
2024-01-26T07:05:43.847Z,9.97
2024-01-26T07:08:11.509Z,9.99
2024-01-26T07:10:38.718Z,9.99
2024-01-26T07:13:06.181Z,10.01
2024-01-26T07:15:33.340Z,10.03
2024-01-26T07:18:00.677Z,10.04
2024-01-26T07:20:27.898Z,10.11
2024-01-26T07:22:55.184Z,10.12
2024-01-26T07:25:22.881Z,10.12
2024-01-26T07:27:50.528Z,10.12
2024-01-26T07:30:20.292Z,10.14
2024-01-26T07:32:47.657Z,10.15
2024-01-26T07:35:14.970Z,10.15
2024-01-26T07:37:42.221Z,10.14
2024-01-26T07:40:09.918Z,10.13
2024-01-26T07:42:37.037Z,10.14
2024-01-26T07:45:04.593Z,10.16
2024-01-26T07:47:32.043Z,10.16
2024-01-26T07:49:59.429Z,10.18
2024-01-26T07:52:26.632Z,10.18
2024-01-26T07:54:54.749Z,10.19
2024-01-26T07:57:22.508Z,10.17
2024-01-26T07:59:50.038Z,10.17
2024-01-26T08:02:17.591Z,10.17
2024-01-26T08:04:45.299Z,10.18
2024-01-26T08:07:12.806Z,10.18
2024-01-26T08:09:40.041Z,10.21
2024-01-26T08:12:07.430Z,10.22
2024-01-26T08:14:34.746Z,10.24
2024-01-26T08:17:01.951Z,10.27
2024-01-26T08:19:29.972Z,10.31
2024-01-26T08:21:57.667Z,10.33
2024-01-26T08:24:25.068Z,10.37
2024-01-26T08:26:52.245Z,10.38
2024-01-26T08:29:23.320Z,10.42
2024-01-26T08:31:50.456Z,10.41
2024-01-26T08:34:17.724Z,10.43
2024-01-26T08:36:45.119Z,10.42
2024-01-26T08:39:15.609Z,10.41
2024-01-26T08:41:45.089Z,10.40
2024-01-26T08:44:12.309Z,10.42
2024-01-26T08:46:39.872Z,10.42
2024-01-26T08:49:10.113Z,10.40
2024-01-26T08:51:37.324Z,10.41
2024-01-26T08:54:04.932Z,10.39
2024-01-26T08:56:32.186Z,10.39
2024-01-26T08:59:01.003Z,10.38
2024-01-26T09:01:28.332Z,10.35
2024-01-26T09:03:55.551Z,10.32
2024-01-26T09:06:23.064Z,10.28
2024-01-26T09:08:50.435Z,10.25
2024-01-26T09:11:17.548Z,10.24
2024-01-26T09:13:44.709Z,10.21
2024-01-26T09:16:12.989Z,10.17
2024-01-26T09:18:44.014Z,10.09
2024-01-26T09:21:14.786Z,9.95
2024-01-26T09:23:45.107Z,9.83
2024-01-26T09:26:12.978Z,9.79
2024-01-26T09:28:42.903Z,9.75
2024-01-26T09:31:10.188Z,9.73
2024-01-26T09:33:37.647Z,9.74
2024-01-26T09:36:05.243Z,9.71
2024-01-26T09:38:32.616Z,9.68
2024-01-26T09:41:00.090Z,9.65
2024-01-26T09:43:27.189Z,9.64
2024-01-26T09:45:54.423Z,9.57
2024-01-26T09:48:22.085Z,9.46
2024-01-26T09:50:55.395Z,9.29
2024-01-26T09:53:25.249Z,9.13
2024-01-26T09:55:53.529Z,9.02
2024-01-26T09:58:20.735Z,8.98
2024-01-26T10:00:48.214Z,8.95
2024-01-26T10:03:15.495Z,8.91
2024-01-26T10:05:43.327Z,8.89
2024-01-26T10:08:10.900Z,8.86
2024-01-26T10:10:38.542Z,8.86
2024-01-26T10:13:09.732Z,8.86
2024-01-26T10:15:37.219Z,8.88
2024-01-26T10:18:05.279Z,8.93
2024-01-26T10:20:32.700Z,8.94
2024-01-26T10:22:59.842Z,8.98
2024-01-26T10:25:27.485Z,8.97
2024-01-26T10:27:54.807Z,8.97
2024-01-26T10:30:22.592Z,8.98
2024-01-26T10:32:52.553Z,8.99
2024-01-26T10:35:23.962Z,9.02
2024-01-26T10:37:51.414Z,9.05
2024-01-26T10:40:21.127Z,9.05
2024-01-26T10:42:49.087Z,9.02
2024-01-26T10:45:17.349Z,9.03
2024-01-26T10:47:46.332Z,9.05
2024-01-26T10:50:13.882Z,9.07
2024-01-26T10:52:42.124Z,9.10
2024-01-26T10:55:12.592Z,9.18
2024-01-26T10:57:39.761Z,9.16
2024-01-26T11:00:08.159Z,9.11
2024-01-26T11:02:38.424Z,9.10
2024-01-26T11:05:11.546Z,9.10
2024-01-26T11:07:40.821Z,9.07
2024-01-26T11:10:13.133Z,9.01
2024-01-26T11:12:40.388Z,9.00
2024-01-26T11:15:10.077Z,9.02
2024-01-26T11:18:00.226Z,9.06
2024-01-26T11:20:32.453Z,9.03
2024-01-26T11:23:00.459Z,9.01
2024-01-26T11:25:27.912Z,9.01
2024-01-26T11:28:00.481Z,8.99
2024-01-26T11:30:30.557Z,8.99
2024-01-26T11:32:59.269Z,8.97
2024-01-26T11:35:26.631Z,8.97
2024-01-26T11:37:55.988Z,8.99
2024-01-26T11:40:25.116Z,8.98
2024-01-26T11:42:53.273Z,8.99
2024-01-26T11:45:43.742Z,8.93
2024-01-26T11:48:12.607Z,8.93
2024-01-26T11:50:45.297Z,8.90
2024-01-26T11:53:14.630Z,8.84
2024-01-26T11:55:43.308Z,8.82
2024-01-26T11:58:14.377Z,8.84
2024-01-26T12:00:41.975Z,8.87
2024-01-26T12:03:10.758Z,8.79
2024-01-26T12:05:39.360Z,8.75
2024-01-26T12:08:08.067Z,8.70
2024-01-26T12:10:36.907Z,8.70
2024-01-26T12:13:06.733Z,8.72
2024-01-26T12:15:41.386Z,8.69
2024-01-26T12:18:13.591Z,8.70
2024-01-26T12:20:41.929Z,8.68
2024-01-26T12:23:22.668Z,8.70
2024-01-26T12:25:54.333Z,8.75
2024-01-26T12:28:22.316Z,8.79
2024-01-26T12:30:50.467Z,8.80
2024-01-26T12:33:18.117Z,8.75
2024-01-26T12:35:49.079Z,8.79
2024-01-26T12:38:17.008Z,8.80
2024-01-26T12:40:44.450Z,8.76
2024-01-26T12:43:13.453Z,8.72
2024-01-26T12:45:40.724Z,8.66
2024-01-26T12:48:09.622Z,8.61
2024-01-26T12:50:37.007Z,8.59
2024-01-26T12:53:04.833Z,8.63
2024-01-26T12:55:32.019Z,8.61
2024-01-26T12:57:59.119Z,8.61
2024-01-26T13:00:27.036Z,8.57
2024-01-26T13:02:55.375Z,8.56
2024-01-26T13:05:22.627Z,8.52
2024-01-26T13:07:49.883Z,8.49
2024-01-26T13:10:16.958Z,8.47
2024-01-26T13:12:44.245Z,8.45
2024-01-26T13:15:12.150Z,8.45
2024-01-26T13:17:39.405Z,8.42
2024-01-26T13:20:19.037Z,8.39
2024-01-26T13:22:49.494Z,8.36
2024-01-26T13:25:17.256Z,8.36
2024-01-26T13:27:44.843Z,8.33
2024-01-26T13:30:12.878Z,8.32
2024-01-26T13:32:40.319Z,8.33
2024-01-26T13:35:07.985Z,8.31
2024-01-26T13:37:35.120Z,8.27
2024-01-26T13:40:06.200Z,8.23
2024-01-26T13:42:34.194Z,8.22
2024-01-26T13:45:01.904Z,8.20
2024-01-26T13:47:30.413Z,8.18
2024-01-26T13:49:58.069Z,8.19
2024-01-26T13:52:25.393Z,8.14
2024-01-26T13:54:52.510Z,8.11
2024-01-26T13:57:19.909Z,8.11
2024-01-26T13:59:47.126Z,8.13
2024-01-26T14:02:14.296Z,8.14
2024-01-26T14:04:41.359Z,8.12
2024-01-26T14:07:08.643Z,8.10
2024-01-26T14:09:36.253Z,8.11
2024-01-26T14:12:05.093Z,8.12
2024-01-26T14:14:32.484Z,8.09
2024-01-26T14:16:59.593Z,8.05
2024-01-26T14:19:27.102Z,8.05
2024-01-26T14:21:55.728Z,8.05
2024-01-26T14:24:23.135Z,8.05
2024-01-26T14:26:50.509Z,7.99
2024-01-26T14:29:19.369Z,7.98
2024-01-26T14:31:51.019Z,7.99
2024-01-26T14:34:18.737Z,7.98
2024-01-26T14:36:46.955Z,7.99
2024-01-26T14:39:14.689Z,7.98
2024-01-26T14:41:42.214Z,8.00
2024-01-26T14:44:09.464Z,8.00
2024-01-26T14:46:36.934Z,7.96
2024-01-26T14:49:05.693Z,7.92
2024-01-26T14:51:34.473Z,7.90
2024-01-26T14:54:03.104Z,7.85
2024-01-26T14:56:32.066Z,7.82
2024-01-26T14:58:59.516Z,7.80
2024-01-26T15:01:26.961Z,7.84
2024-01-26T15:03:54.242Z,7.86
2024-01-26T15:06:21.576Z,7.83
2024-01-26T15:08:48.820Z,7.79
2024-01-26T15:11:16.109Z,7.79
2024-01-26T15:13:43.280Z,7.78
2024-01-26T15:16:16.589Z,7.78
2024-01-26T15:18:43.967Z,7.74
2024-01-26T15:21:18.573Z,7.71
2024-01-26T15:23:45.848Z,7.69
2024-01-26T15:26:13.490Z,7.67
2024-01-26T15:28:40.578Z,7.66
2024-01-26T15:31:08.123Z,7.66
2024-01-26T15:33:35.358Z,7.67
2024-01-26T15:36:02.814Z,7.68
2024-01-26T15:38:29.973Z,7.64
2024-01-26T15:40:57.155Z,7.61
2024-01-26T15:43:24.275Z,7.58
2024-01-26T15:45:51.421Z,7.57
2024-01-26T15:48:18.692Z,7.53
2024-01-26T15:50:45.962Z,7.45
2024-01-26T15:53:13.251Z,7.39
2024-01-26T15:55:40.382Z,7.37
2024-01-26T15:58:07.480Z,7.34
2024-01-26T16:00:34.838Z,7.30
2024-01-26T16:03:02.151Z,7.26
2024-01-26T16:05:29.348Z,7.28
2024-01-26T16:07:56.465Z,7.28
2024-01-26T16:10:23.643Z,7.29
2024-01-26T16:12:50.766Z,7.28
2024-01-26T16:15:18.012Z,7.28
2024-01-26T16:17:45.300Z,7.25
2024-01-26T16:20:12.620Z,7.21
2024-01-26T16:22:40.056Z,7.15
2024-01-26T16:25:08.348Z,7.16
2024-01-26T16:27:35.549Z,7.15
2024-01-26T16:30:07.062Z,7.13
2024-01-26T16:32:34.808Z,7.07
2024-01-26T16:35:02.084Z,7.06
2024-01-26T16:37:32.072Z,7.04
2024-01-26T16:40:01.001Z,7.02
2024-01-26T16:42:28.452Z,7.02
2024-01-26T16:44:55.685Z,7.01
2024-01-26T16:47:22.818Z,6.96
2024-01-26T16:49:55.039Z,6.90
2024-01-26T16:52:23.336Z,6.88
2024-01-26T16:54:50.975Z,6.87
2024-01-26T16:57:18.210Z,6.85
2024-01-26T16:59:45.674Z,6.81
2024-01-26T17:02:12.849Z,6.81
2024-01-26T17:04:40.128Z,6.82
2024-01-26T17:07:07.430Z,6.83
2024-01-26T17:09:34.684Z,6.81
2024-01-26T17:12:02.156Z,6.79
2024-01-26T17:14:29.273Z,6.78
2024-01-26T17:16:56.612Z,6.73
2024-01-26T17:19:23.880Z,6.68
2024-01-26T17:21:51.209Z,6.63
2024-01-26T17:24:18.442Z,6.62
2024-01-26T17:26:45.725Z,6.62
2024-01-26T17:29:12.870Z,6.59
2024-01-26T17:31:40.038Z,6.57
2024-01-26T17:34:07.329Z,6.52
2024-01-26T17:36:34.562Z,6.51
2024-01-26T17:39:02.549Z,6.48
2024-01-26T17:41:29.679Z,6.48
2024-01-26T17:43:57.225Z,6.47
2024-01-26T17:46:24.478Z,6.50
2024-01-26T17:48:51.841Z,6.51
2024-01-26T17:51:19.214Z,6.50
2024-01-26T17:53:46.393Z,6.48
2024-01-26T17:56:13.611Z,6.41
2024-01-26T17:58:40.864Z,6.38
2024-01-26T18:01:08.014Z,6.37
2024-01-26T18:03:35.262Z,6.33
2024-01-26T18:06:02.572Z,6.28
2024-01-26T18:08:29.814Z,6.24
2024-01-26T18:10:57.993Z,6.24
2024-01-26T18:13:25.191Z,6.21
2024-01-26T18:15:52.333Z,6.22
2024-01-26T18:18:19.754Z,6.25
2024-01-26T18:20:48.131Z,6.32
2024-01-26T18:23:15.422Z,6.39
2024-01-26T18:25:42.667Z,6.45
2024-01-26T18:28:09.943Z,6.48
2024-01-26T18:30:37.032Z,6.51
2024-01-26T18:33:04.651Z,6.53
2024-01-26T18:35:31.788Z,6.55
2024-01-26T18:37:58.940Z,6.56
2024-01-26T18:40:26.116Z,6.56
2024-01-26T18:42:53.226Z,6.56
2024-01-26T18:45:20.885Z,6.52
2024-01-26T18:47:48.342Z,6.48
2024-01-26T18:50:15.882Z,6.47
2024-01-26T18:52:43.080Z,6.45
2024-01-26T18:55:10.849Z,6.43
2024-01-26T18:57:38.549Z,6.43
2024-01-26T19:00:09.855Z,6.45
2024-01-26T19:02:38.631Z,6.46
2024-01-26T19:05:11.234Z,6.48
2024-01-26T19:07:40.422Z,6.53
2024-01-26T19:10:08.158Z,6.53
2024-01-26T19:12:35.633Z,6.49
2024-01-26T19:15:03.661Z,6.45
2024-01-26T19:17:31.424Z,6.42
2024-01-26T19:19:59.762Z,6.38
2024-01-26T19:22:27.251Z,6.33
2024-01-26T19:24:54.613Z,6.32
2024-01-26T19:27:21.911Z,6.31
2024-01-26T19:29:49.174Z,6.31
2024-01-26T19:32:17.718Z,6.32
2024-01-26T19:34:45.218Z,6.30
2024-01-26T19:37:12.540Z,6.28
2024-01-26T19:39:40.530Z,6.25
2024-01-26T19:42:08.223Z,6.21
2024-01-26T19:44:35.405Z,6.22
2024-01-26T19:47:04.618Z,6.21
2024-01-26T19:49:32.959Z,6.18
2024-01-26T19:52:00.324Z,6.18
2024-01-26T19:54:27.495Z,6.14
2024-01-26T19:56:54.958Z,6.09
2024-01-26T19:59:22.238Z,6.02
2024-01-26T20:01:49.364Z,5.97
2024-01-26T20:04:16.553Z,5.97
2024-01-26T20:06:43.895Z,5.94
2024-01-26T20:09:11.459Z,5.93
2024-01-26T20:11:39.866Z,5.93
2024-01-26T20:14:08.670Z,5.92
2024-01-26T20:16:36.476Z,5.84
2024-01-26T20:19:05.365Z,5.77
2024-01-26T20:21:32.815Z,5.69
2024-01-26T20:24:00.105Z,5.67
2024-01-26T20:26:27.322Z,5.66
2024-01-26T20:28:54.753Z,5.65
2024-01-26T20:31:21.994Z,5.63
2024-01-26T20:33:49.625Z,5.59
2024-01-26T20:36:17.024Z,5.53
2024-01-26T20:38:45.655Z,5.50
2024-01-26T20:41:12.898Z,5.47
2024-01-26T20:43:39.962Z,5.46
2024-01-26T20:46:10.297Z,5.44
2024-01-26T20:48:38.819Z,5.39
2024-01-26T20:51:06.437Z,5.29
2024-01-26T20:53:35.942Z,5.17
2024-01-26T20:56:04.299Z,5.16
2024-01-26T20:58:31.623Z,5.21
2024-01-26T21:00:58.940Z,5.29
2024-01-26T21:03:26.354Z,5.33
2024-01-26T21:05:54.091Z,5.32
2024-01-26T21:08:24.635Z,5.28
2024-01-26T21:10:51.908Z,5.18
2024-01-26T21:13:19.363Z,5.09
2024-01-26T21:15:49.578Z,5.04
2024-01-26T21:18:19.599Z,5.01
2024-01-26T21:20:47.087Z,5.08
2024-01-26T21:23:14.921Z,5.13
2024-01-26T21:25:42.305Z,5.16
2024-01-26T21:28:10.551Z,5.20
2024-01-26T21:30:38.479Z,5.25
2024-01-26T21:33:06.059Z,5.28
2024-01-26T21:35:33.353Z,5.30
2024-01-26T21:38:00.917Z,5.31
2024-01-26T21:40:31.243Z,5.23
2024-01-26T21:42:58.943Z,5.08
2024-01-26T21:45:26.367Z,5.01
2024-01-26T21:47:54.387Z,4.99
2024-01-26T21:50:23.532Z,5.03
2024-01-26T21:52:50.786Z,5.03
2024-01-26T21:55:18.046Z,5.01
2024-01-26T21:57:45.374Z,5.03
2024-01-26T22:00:14.578Z,5.06
2024-01-26T22:02:42.292Z,5.06
2024-01-26T22:05:13.076Z,5.05
2024-01-26T22:07:40.689Z,5.06
2024-01-26T22:10:08.612Z,5.08
2024-01-26T22:12:35.912Z,5.04
2024-01-26T22:15:06.326Z,5.02
2024-01-26T22:17:33.786Z,4.99
2024-01-26T22:20:01.288Z,4.96
2024-01-26T22:22:28.921Z,4.98
2024-01-26T22:24:56.220Z,5.01
2024-01-26T22:27:24.101Z,4.95
2024-01-26T22:29:56.592Z,4.91
2024-01-26T22:32:24.111Z,4.88
2024-01-26T22:34:51.480Z,4.83
2024-01-26T22:37:19.039Z,4.80
2024-01-26T22:39:47.502Z,4.77
2024-01-26T22:42:15.632Z,4.73
2024-01-26T22:44:43.026Z,4.73
2024-01-26T22:47:10.424Z,4.69
2024-01-26T22:49:38.812Z,4.65
2024-01-26T22:52:06.251Z,4.66
2024-01-26T22:54:33.486Z,4.66
2024-01-26T22:57:00.660Z,4.66
2024-01-26T22:59:27.909Z,4.66
2024-01-26T23:01:55.385Z,4.62
2024-01-26T23:04:22.981Z,4.63
2024-01-26T23:06:51.650Z,4.66
2024-01-26T23:09:19.246Z,4.70
2024-01-26T23:11:46.651Z,4.72
2024-01-26T23:14:14.279Z,4.72
2024-01-26T23:16:42.055Z,4.66
2024-01-26T23:19:10.000Z,4.61
2024-01-26T23:21:37.406Z,4.59
2024-01-26T23:24:04.602Z,4.61
2024-01-26T23:26:31.873Z,4.61
2024-01-26T23:28:59.320Z,4.62
2024-01-26T23:31:29.726Z,4.63
2024-01-26T23:33:57.210Z,4.60
2024-01-26T23:36:24.577Z,4.58
2024-01-26T23:38:52.801Z,4.48
2024-01-26T23:41:21.210Z,4.47
2024-01-26T23:43:50.260Z,4.48
2024-01-26T23:46:18.068Z,4.51
2024-01-26T23:48:45.504Z,4.52
2024-01-26T23:51:13.072Z,4.52
2024-01-26T23:53:40.253Z,4.48
2024-01-26T23:56:07.771Z,4.44
2024-01-26T23:58:35.132Z,4.38
